sensor_id;sensor_type;location;lat;lon;timestamp;temperature;humidity
65036;DHT22;51603;49.300;8.880;2022-09-09T00:02:26;15.00;99.90
65036;DHT22;51603;49.300;8.880;2022-09-09T00:04:57;14.90;99.90
65036;DHT22;51603;49.300;8.880;2022-09-09T00:07:47;14.80;99.90
65036;DHT22;51603;49.300;8.880;2022-09-09T00:15:47;14.60;99.90
65036;DHT22;51603;49.300;8.880;2022-09-09T00:18:38;14.50;99.90
65036;DHT22;51603;49.300;8.880;2022-09-09T00:21:08;14.60;99.90
65036;DHT22;51603;49.300;8.880;2022-09-09T00:23:42;14.70;99.90
65036;DHT22;51603;49.300;8.880;2022-09-09T00:26:17;14.80;99.90
65036;DHT22;51603;49.300;8.880;2022-09-09T00:29:15;14.80;99.90
65036;DHT22;51603;49.300;8.880;2022-09-09T00:31:45;14.90;99.90
65036;DHT22;51603;49.300;8.880;2022-09-09T00:34:14;15.00;99.90
65036;DHT22;51603;49.300;8.880;2022-09-09T00:36:42;15.00;99.90
65036;DHT22;51603;49.300;8.880;2022-09-09T00:39:27;15.00;99.90
65036;DHT22;51603;49.300;8.880;2022-09-09T00:44:36;15.00;99.90
65036;DHT22;51603;49.300;8.880;2022-09-09T00:55:19;14.80;99.90
65036;DHT22;51603;49.300;8.880;2022-09-09T00:57:49;14.90;99.90
65036;DHT22;51603;49.300;8.880;2022-09-09T01:03:54;14.90;99.90
65036;DHT22;51603;49.300;8.880;2022-09-09T01:06:34;14.90;99.90
65036;DHT22;51603;49.300;8.880;2022-09-09T01:12:12;14.90;99.90
65036;DHT22;51603;49.300;8.880;2022-09-09T01:14:45;14.90;99.90
65036;DHT22;51603;49.300;8.880;2022-09-09T01:17:26;14.90;99.90
65036;DHT22;51603;49.300;8.880;2022-09-09T01:20:13;14.90;99.90
65036;DHT22;51603;49.300;8.880;2022-09-09T01:23:02;14.90;99.90
65036;DHT22;51603;49.300;8.880;2022-09-09T01:28:29;14.80;99.90
65036;DHT22;51603;49.300;8.880;2022-09-09T01:30:57;14.90;99.90
65036;DHT22;51603;49.300;8.880;2022-09-09T01:33:24;14.90;99.90
65036;DHT22;51603;49.300;8.880;2022-09-09T01:35:57;14.90;99.90
65036;DHT22;51603;49.300;8.880;2022-09-09T01:38:26;14.90;99.90
65036;DHT22;51603;49.300;8.880;2022-09-09T01:40:53;14.90;99.90
65036;DHT22;51603;49.300;8.880;2022-09-09T01:43:21;14.90;99.90
65036;DHT22;51603;49.300;8.880;2022-09-09T01:45:49;14.90;99.90
65036;DHT22;51603;49.300;8.880;2022-09-09T01:48:17;14.70;99.90
65036;DHT22;51603;49.300;8.880;2022-09-09T01:50:43;14.60;99.90
65036;DHT22;51603;49.300;8.880;2022-09-09T01:53:09;14.50;99.90
65036;DHT22;51603;49.300;8.880;2022-09-09T01:55:39;14.50;99.90
65036;DHT22;51603;49.300;8.880;2022-09-09T01:58:28;14.50;99.90
65036;DHT22;51603;49.300;8.880;2022-09-09T02:01:21;14.60;99.90
65036;DHT22;51603;49.300;8.880;2022-09-09T02:03:52;14.50;99.90
65036;DHT22;51603;49.300;8.880;2022-09-09T02:06:30;14.40;99.90
65036;DHT22;51603;49.300;8.880;2022-09-09T02:08:57;14.50;99.90
65036;DHT22;51603;49.300;8.880;2022-09-09T02:11:27;14.30;99.90
65036;DHT22;51603;49.300;8.880;2022-09-09T02:14:02;14.30;99.90
65036;DHT22;51603;49.300;8.880;2022-09-09T02:16:40;14.40;99.90
65036;DHT22;51603;49.300;8.880;2022-09-09T02:21:44;14.50;99.90
65036;DHT22;51603;49.300;8.880;2022-09-09T02:24:12;14.50;99.90
65036;DHT22;51603;49.300;8.880;2022-09-09T02:26:41;14.50;99.90
65036;DHT22;51603;49.300;8.880;2022-09-09T02:29:17;14.40;99.90
65036;DHT22;51603;49.300;8.880;2022-09-09T02:31:45;14.50;99.90
65036;DHT22;51603;49.300;8.880;2022-09-09T02:34:12;14.50;99.90
65036;DHT22;51603;49.300;8.880;2022-09-09T02:36:40;14.50;99.90
65036;DHT22;51603;49.300;8.880;2022-09-09T02:39:08;14.50;99.90
65036;DHT22;51603;49.300;8.880;2022-09-09T02:41:37;14.50;99.90
65036;DHT22;51603;49.300;8.880;2022-09-09T02:44:11;14.50;99.90
65036;DHT22;51603;49.300;8.880;2022-09-09T02:46:47;14.40;99.90
65036;DHT22;51603;49.300;8.880;2022-09-09T02:52:11;14.40;99.90
65036;DHT22;51603;49.300;8.880;2022-09-09T02:54:41;14.50;99.90
65036;DHT22;51603;49.300;8.880;2022-09-09T02:57:20;14.50;99.90
65036;DHT22;51603;49.300;8.880;2022-09-09T02:59:48;14.50;99.90
65036;DHT22;51603;49.300;8.880;2022-09-09T03:02:13;14.50;99.90
65036;DHT22;51603;49.300;8.880;2022-09-09T03:04:40;14.60;99.90
65036;DHT22;51603;49.300;8.880;2022-09-09T03:07:07;14.70;99.90
65036;DHT22;51603;49.300;8.880;2022-09-09T03:09:32;14.70;99.90
65036;DHT22;51603;49.300;8.880;2022-09-09T03:11:58;14.70;99.90
65036;DHT22;51603;49.300;8.880;2022-09-09T03:14:24;14.60;99.90
65036;DHT22;51603;49.300;8.880;2022-09-09T03:16:53;14.60;99.90
65036;DHT22;51603;49.300;8.880;2022-09-09T03:19:20;14.60;99.90
65036;DHT22;51603;49.300;8.880;2022-09-09T03:21:46;14.70;99.90
65036;DHT22;51603;49.300;8.880;2022-09-09T03:24:13;14.70;99.90
65036;DHT22;51603;49.300;8.880;2022-09-09T03:26:40;14.70;99.90
65036;DHT22;51603;49.300;8.880;2022-09-09T03:29:06;14.70;99.90
65036;DHT22;51603;49.300;8.880;2022-09-09T03:31:33;14.70;99.90
65036;DHT22;51603;49.300;8.880;2022-09-09T03:33:58;14.70;99.90
65036;DHT22;51603;49.300;8.880;2022-09-09T03:36:26;14.70;99.90
65036;DHT22;51603;49.300;8.880;2022-09-09T03:38:52;14.70;99.90
65036;DHT22;51603;49.300;8.880;2022-09-09T03:41:19;14.80;99.90
65036;DHT22;51603;49.300;8.880;2022-09-09T03:43:45;14.80;99.90
65036;DHT22;51603;49.300;8.880;2022-09-09T03:46:10;14.80;99.90
65036;DHT22;51603;49.300;8.880;2022-09-09T03:48:36;14.90;99.90
65036;DHT22;51603;49.300;8.880;2022-09-09T03:51:01;14.70;99.90
65036;DHT22;51603;49.300;8.880;2022-09-09T03:53:29;14.50;99.90
65036;DHT22;51603;49.300;8.880;2022-09-09T03:55:56;14.50;99.90
65036;DHT22;51603;49.300;8.880;2022-09-09T03:58:25;14.50;99.90
65036;DHT22;51603;49.300;8.880;2022-09-09T04:00:57;14.50;99.90
65036;DHT22;51603;49.300;8.880;2022-09-09T04:03:24;14.50;99.90
65036;DHT22;51603;49.300;8.880;2022-09-09T04:05:51;14.50;99.90
65036;DHT22;51603;49.300;8.880;2022-09-09T04:08:17;14.50;99.90
65036;DHT22;51603;49.300;8.880;2022-09-09T04:10:45;14.60;99.90
65036;DHT22;51603;49.300;8.880;2022-09-09T04:13:12;14.60;99.90
65036;DHT22;51603;49.300;8.880;2022-09-09T04:15:40;14.70;99.90
65036;DHT22;51603;49.300;8.880;2022-09-09T04:18:06;14.80;99.90
65036;DHT22;51603;49.300;8.880;2022-09-09T04:20:32;14.80;99.90
65036;DHT22;51603;49.300;8.880;2022-09-09T04:22:58;14.80;99.90
65036;DHT22;51603;49.300;8.880;2022-09-09T04:25:24;14.80;99.90
65036;DHT22;51603;49.300;8.880;2022-09-09T04:27:58;14.90;99.90
65036;DHT22;51603;49.300;8.880;2022-09-09T04:30:24;14.80;99.90
65036;DHT22;51603;49.300;8.880;2022-09-09T04:32:50;14.80;99.90
65036;DHT22;51603;49.300;8.880;2022-09-09T04:35:16;14.80;99.90
65036;DHT22;51603;49.300;8.880;2022-09-09T04:37:41;14.90;99.90
65036;DHT22;51603;49.300;8.880;2022-09-09T04:40:08;14.90;99.90
65036;DHT22;51603;49.300;8.880;2022-09-09T04:42:36;14.90;99.90
65036;DHT22;51603;49.300;8.880;2022-09-09T04:45:02;14.90;99.90
65036;DHT22;51603;49.300;8.880;2022-09-09T04:47:28;15.00;99.90
65036;DHT22;51603;49.300;8.880;2022-09-09T04:49:53;14.90;99.90
65036;DHT22;51603;49.300;8.880;2022-09-09T04:52:20;15.00;99.90
65036;DHT22;51603;49.300;8.880;2022-09-09T04:54:46;15.00;99.90
65036;DHT22;51603;49.300;8.880;2022-09-09T04:57:12;14.90;99.90
65036;DHT22;51603;49.300;8.880;2022-09-09T04:59:37;14.90;99.90
65036;DHT22;51603;49.300;8.880;2022-09-09T05:02:05;14.90;99.90
65036;DHT22;51603;49.300;8.880;2022-09-09T05:04:30;14.90;99.90
65036;DHT22;51603;49.300;8.880;2022-09-09T05:06:56;15.00;99.90
65036;DHT22;51603;49.300;8.880;2022-09-09T05:09:21;15.00;99.90
65036;DHT22;51603;49.300;8.880;2022-09-09T05:11:47;15.00;99.90
65036;DHT22;51603;49.300;8.880;2022-09-09T05:14:14;14.80;99.90
65036;DHT22;51603;49.300;8.880;2022-09-09T05:16:40;14.80;99.90
65036;DHT22;51603;49.300;8.880;2022-09-09T05:19:05;14.70;99.90
65036;DHT22;51603;49.300;8.880;2022-09-09T05:21:33;14.70;99.90
65036;DHT22;51603;49.300;8.880;2022-09-09T05:23:58;14.70;99.90
65036;DHT22;51603;49.300;8.880;2022-09-09T05:26:25;14.60;99.90
65036;DHT22;51603;49.300;8.880;2022-09-09T05:28:51;14.70;99.90
65036;DHT22;51603;49.300;8.880;2022-09-09T05:31:18;14.70;99.90
65036;DHT22;51603;49.300;8.880;2022-09-09T05:33:45;14.70;99.90
65036;DHT22;51603;49.300;8.880;2022-09-09T05:36:16;14.60;99.90
65036;DHT22;51603;49.300;8.880;2022-09-09T05:38:43;14.60;99.90
65036;DHT22;51603;49.300;8.880;2022-09-09T05:41:09;14.50;99.90
65036;DHT22;51603;49.300;8.880;2022-09-09T05:43:37;14.50;99.90
65036;DHT22;51603;49.300;8.880;2022-09-09T05:46:07;14.50;99.90
65036;DHT22;51603;49.300;8.880;2022-09-09T05:48:35;14.50;99.90
65036;DHT22;51603;49.300;8.880;2022-09-09T05:51:01;14.50;99.90
65036;DHT22;51603;49.300;8.880;2022-09-09T05:53:28;14.40;99.90
65036;DHT22;51603;49.300;8.880;2022-09-09T05:56:01;14.40;99.90
65036;DHT22;51603;49.300;8.880;2022-09-09T05:58:32;14.50;99.90
65036;DHT22;51603;49.300;8.880;2022-09-09T06:01:08;14.60;99.90
65036;DHT22;51603;49.300;8.880;2022-09-09T06:03:35;14.70;99.90
65036;DHT22;51603;49.300;8.880;2022-09-09T06:06:06;14.70;99.90
65036;DHT22;51603;49.300;8.880;2022-09-09T06:08:33;14.70;99.90
65036;DHT22;51603;49.300;8.880;2022-09-09T06:11:03;14.80;99.90
65036;DHT22;51603;49.300;8.880;2022-09-09T06:13:30;14.90;99.90
65036;DHT22;51603;49.300;8.880;2022-09-09T06:15:55;14.90;99.90
65036;DHT22;51603;49.300;8.880;2022-09-09T06:18:21;15.00;99.90
65036;DHT22;51603;49.300;8.880;2022-09-09T06:20:57;15.10;99.90
65036;DHT22;51603;49.300;8.880;2022-09-09T06:23:23;15.10;99.90
65036;DHT22;51603;49.300;8.880;2022-09-09T06:25:49;15.10;99.90
65036;DHT22;51603;49.300;8.880;2022-09-09T06:28:16;15.20;99.90
65036;DHT22;51603;49.300;8.880;2022-09-09T06:30:43;15.20;99.90
65036;DHT22;51603;49.300;8.880;2022-09-09T06:33:08;15.20;99.90
65036;DHT22;51603;49.300;8.880;2022-09-09T06:35:34;15.30;99.90
65036;DHT22;51603;49.300;8.880;2022-09-09T06:38:00;15.30;99.90
65036;DHT22;51603;49.300;8.880;2022-09-09T06:40:26;15.40;99.90
65036;DHT22;51603;49.300;8.880;2022-09-09T06:42:51;15.40;99.90
65036;DHT22;51603;49.300;8.880;2022-09-09T06:45:17;15.40;99.90
65036;DHT22;51603;49.300;8.880;2022-09-09T06:47:43;15.40;99.90
65036;DHT22;51603;49.300;8.880;2022-09-09T06:50:09;15.40;99.90
65036;DHT22;51603;49.300;8.880;2022-09-09T06:52:36;15.50;99.90
65036;DHT22;51603;49.300;8.880;2022-09-09T06:55:02;15.60;99.90
65036;DHT22;51603;49.300;8.880;2022-09-09T06:57:28;15.70;99.90
65036;DHT22;51603;49.300;8.880;2022-09-09T06:59:53;15.80;99.90
65036;DHT22;51603;49.300;8.880;2022-09-09T07:02:19;15.80;99.90
65036;DHT22;51603;49.300;8.880;2022-09-09T07:04:45;16.00;99.90
65036;DHT22;51603;49.300;8.880;2022-09-09T07:07:10;16.20;99.90
65036;DHT22;51603;49.300;8.880;2022-09-09T07:09:38;16.40;99.90
65036;DHT22;51603;49.300;8.880;2022-09-09T07:12:05;16.50;99.90
65036;DHT22;51603;49.300;8.880;2022-09-09T07:14:31;16.80;99.90
65036;DHT22;51603;49.300;8.880;2022-09-09T07:16:58;16.80;99.90
65036;DHT22;51603;49.300;8.880;2022-09-09T07:19:23;16.90;99.90
65036;DHT22;51603;49.300;8.880;2022-09-09T07:21:49;17.00;99.90
65036;DHT22;51603;49.300;8.880;2022-09-09T07:24:15;17.10;99.90
65036;DHT22;51603;49.300;8.880;2022-09-09T07:26:40;17.10;99.90
65036;DHT22;51603;49.300;8.880;2022-09-09T07:29:07;17.10;99.90
65036;DHT22;51603;49.300;8.880;2022-09-09T07:31:35;17.10;99.90
65036;DHT22;51603;49.300;8.880;2022-09-09T07:34:03;17.10;99.90
65036;DHT22;51603;49.300;8.880;2022-09-09T07:36:33;17.20;99.90
65036;DHT22;51603;49.300;8.880;2022-09-09T07:39:03;17.30;99.90
65036;DHT22;51603;49.300;8.880;2022-09-09T07:41:35;17.50;99.90
65036;DHT22;51603;49.300;8.880;2022-09-09T07:44:09;17.60;99.90
65036;DHT22;51603;49.300;8.880;2022-09-09T07:46:36;17.70;99.90
65036;DHT22;51603;49.300;8.880;2022-09-09T07:49:03;17.80;99.90
65036;DHT22;51603;49.300;8.880;2022-09-09T07:51:34;18.00;99.90
65036;DHT22;51603;49.300;8.880;2022-09-09T07:54:02;18.10;99.90
65036;DHT22;51603;49.300;8.880;2022-09-09T07:56:29;18.40;99.90
65036;DHT22;51603;49.300;8.880;2022-09-09T07:58:56;18.50;99.90
65036;DHT22;51603;49.300;8.880;2022-09-09T08:01:34;18.70;99.90
65036;DHT22;51603;49.300;8.880;2022-09-09T08:04:05;18.70;99.90
65036;DHT22;51603;49.300;8.880;2022-09-09T08:06:36;18.70;99.90
65036;DHT22;51603;49.300;8.880;2022-09-09T08:09:03;18.60;99.90
65036;DHT22;51603;49.300;8.880;2022-09-09T08:11:29;18.50;99.90
65036;DHT22;51603;49.300;8.880;2022-09-09T08:13:56;18.50;99.90
65036;DHT22;51603;49.300;8.880;2022-09-09T08:16:26;18.60;99.90
65036;DHT22;51603;49.300;8.880;2022-09-09T08:18:53;18.60;99.90
65036;DHT22;51603;49.300;8.880;2022-09-09T08:21:22;18.70;99.90
65036;DHT22;51603;49.300;8.880;2022-09-09T08:23:51;18.70;99.90
65036;DHT22;51603;49.300;8.880;2022-09-09T08:26:19;18.80;99.90
65036;DHT22;51603;49.300;8.880;2022-09-09T08:28:48;18.80;99.90
65036;DHT22;51603;49.300;8.880;2022-09-09T08:33:44;19.00;99.90
65036;DHT22;51603;49.300;8.880;2022-09-09T08:36:21;19.20;99.90
65036;DHT22;51603;49.300;8.880;2022-09-09T08:38:52;19.30;99.90
65036;DHT22;51603;49.300;8.880;2022-09-09T08:44:45;19.60;99.90
65036;DHT22;51603;49.300;8.880;2022-09-09T08:47:42;19.70;99.90
65036;DHT22;51603;49.300;8.880;2022-09-09T08:50:26;19.80;99.90
65036;DHT22;51603;49.300;8.880;2022-09-09T08:53:14;19.90;99.90
65036;DHT22;51603;49.300;8.880;2022-09-09T08:55:58;19.90;99.90
65036;DHT22;51603;49.300;8.880;2022-09-09T08:58:29;20.10;99.90
65036;DHT22;51603;49.300;8.880;2022-09-09T09:06:45;19.50;99.90
65036;DHT22;51603;49.300;8.880;2022-09-09T09:12:19;18.60;99.90
65036;DHT22;51603;49.300;8.880;2022-09-09T09:14:47;18.30;99.90
65036;DHT22;51603;49.300;8.880;2022-09-09T09:19:41;18.10;99.90
65036;DHT22;51603;49.300;8.880;2022-09-09T09:22:38;18.10;99.90
65036;DHT22;51603;49.300;8.880;2022-09-09T09:25:18;18.20;99.90
65036;DHT22;51603;49.300;8.880;2022-09-09T09:30:42;18.60;99.90
65036;DHT22;51603;49.300;8.880;2022-09-09T09:33:20;18.70;99.90
65036;DHT22;51603;49.300;8.880;2022-09-09T09:35:49;18.80;99.90
65036;DHT22;51603;49.300;8.880;2022-09-09T09:38:22;18.80;99.90
65036;DHT22;51603;49.300;8.880;2022-09-09T09:40:56;19.00;99.90
65036;DHT22;51603;49.300;8.880;2022-09-09T09:43:35;19.10;99.90
65036;DHT22;51603;49.300;8.880;2022-09-09T09:46:04;19.40;99.90
65036;DHT22;51603;49.300;8.880;2022-09-09T09:48:30;19.60;99.90
65036;DHT22;51603;49.300;8.880;2022-09-09T09:51:06;19.80;99.90
65036;DHT22;51603;49.300;8.880;2022-09-09T09:53:34;19.90;99.90
65036;DHT22;51603;49.300;8.880;2022-09-09T09:56:03;20.00;99.90
65036;DHT22;51603;49.300;8.880;2022-09-09T10:01:27;20.00;99.90
65036;DHT22;51603;49.300;8.880;2022-09-09T10:04:00;19.90;99.90
65036;DHT22;51603;49.300;8.880;2022-09-09T10:06:34;19.80;99.90
65036;DHT22;51603;49.300;8.880;2022-09-09T10:09:01;19.70;99.90
65036;DHT22;51603;49.300;8.880;2022-09-09T10:14:21;19.60;99.90
65036;DHT22;51603;49.300;8.880;2022-09-09T10:22:44;20.20;99.90
65036;DHT22;51603;49.300;8.880;2022-09-09T10:25:59;20.50;99.90
65036;DHT22;51603;49.300;8.880;2022-09-09T10:28:52;20.60;99.90
65036;DHT22;51603;49.300;8.880;2022-09-09T10:31:41;20.70;99.90
65036;DHT22;51603;49.300;8.880;2022-09-09T10:36:47;21.00;99.90
65036;DHT22;51603;49.300;8.880;2022-09-09T10:39:36;21.10;99.90
65036;DHT22;51603;49.300;8.880;2022-09-09T10:42:12;21.10;99.90
65036;DHT22;51603;49.300;8.880;2022-09-09T10:50:40;20.30;99.90
65036;DHT22;51603;49.300;8.880;2022-09-09T10:53:26;20.20;99.90
65036;DHT22;51603;49.300;8.880;2022-09-09T10:55:57;20.40;99.90
65036;DHT22;51603;49.300;8.880;2022-09-09T10:58:30;20.50;99.90
65036;DHT22;51603;49.300;8.880;2022-09-09T11:01:06;20.70;99.90
65036;DHT22;51603;49.300;8.880;2022-09-09T11:03:36;20.80;99.90
65036;DHT22;51603;49.300;8.880;2022-09-09T11:06:09;21.00;99.90
65036;DHT22;51603;49.300;8.880;2022-09-09T11:08:38;21.00;99.90
65036;DHT22;51603;49.300;8.880;2022-09-09T11:11:17;21.10;99.90
65036;DHT22;51603;49.300;8.880;2022-09-09T11:19:20;21.30;99.90
65036;DHT22;51603;49.300;8.880;2022-09-09T11:21:50;21.10;99.60
65036;DHT22;51603;49.300;8.880;2022-09-09T11:26:58;21.00;98.90
65036;DHT22;51603;49.300;8.880;2022-09-09T11:29:36;21.10;99.20
65036;DHT22;51603;49.300;8.880;2022-09-09T11:40:30;21.20;98.90
65036;DHT22;51603;49.300;8.880;2022-09-09T11:43:12;21.40;98.10
65036;DHT22;51603;49.300;8.880;2022-09-09T11:45:40;21.70;97.90
65036;DHT22;51603;49.300;8.880;2022-09-09T11:48:35;21.70;97.80
65036;DHT22;51603;49.300;8.880;2022-09-09T11:51:12;21.60;96.30
65036;DHT22;51603;49.300;8.880;2022-09-09T11:53:52;21.90;95.70
65036;DHT22;51603;49.300;8.880;2022-09-09T11:56:31;22.10;95.30
65036;DHT22;51603;49.300;8.880;2022-09-09T11:59:04;21.90;94.00
65036;DHT22;51603;49.300;8.880;2022-09-09T12:01:39;21.80;94.80
65036;DHT22;51603;49.300;8.880;2022-09-09T12:04:17;21.90;93.30
65036;DHT22;51603;49.300;8.880;2022-09-09T12:06:54;21.80;94.20
65036;DHT22;51603;49.300;8.880;2022-09-09T12:09:56;21.70;93.10
65036;DHT22;51603;49.300;8.880;2022-09-09T12:12:33;21.40;93.40
65036;DHT22;51603;49.300;8.880;2022-09-09T12:17:45;21.20;94.60
65036;DHT22;51603;49.300;8.880;2022-09-09T12:20:18;21.30;94.00
65036;DHT22;51603;49.300;8.880;2022-09-09T12:25:58;21.70;93.20
65036;DHT22;51603;49.300;8.880;2022-09-09T12:33:53;21.40;94.50
65036;DHT22;51603;49.300;8.880;2022-09-09T12:36:23;21.50;93.50
65036;DHT22;51603;49.300;8.880;2022-09-09T12:38:49;21.60;93.00
65036;DHT22;51603;49.300;8.880;2022-09-09T12:41:24;21.80;93.40
65036;DHT22;51603;49.300;8.880;2022-09-09T12:43:50;21.90;93.20
65036;DHT22;51603;49.300;8.880;2022-09-09T12:49:01;22.30;93.00
65036;DHT22;51603;49.300;8.880;2022-09-09T12:51:30;22.20;91.30
65036;DHT22;51603;49.300;8.880;2022-09-09T12:53:56;22.10;91.40
65036;DHT22;51603;49.300;8.880;2022-09-09T12:56:29;21.70;91.70
65036;DHT22;51603;49.300;8.880;2022-09-09T12:58:57;21.40;92.20
65036;DHT22;51603;49.300;8.880;2022-09-09T13:01:31;21.20;92.90
65036;DHT22;51603;49.300;8.880;2022-09-09T13:03:59;20.90;94.90
65036;DHT22;51603;49.300;8.880;2022-09-09T13:06:26;20.60;98.40
65036;DHT22;51603;49.300;8.880;2022-09-09T13:08:53;20.30;99.90
65036;DHT22;51603;49.300;8.880;2022-09-09T13:11:35;20.20;99.90
65036;DHT22;51603;49.300;8.880;2022-09-09T13:14:02;19.90;99.90
65036;DHT22;51603;49.300;8.880;2022-09-09T13:16:34;19.90;99.90
65036;DHT22;51603;49.300;8.880;2022-09-09T13:19:02;19.90;99.90
65036;DHT22;51603;49.300;8.880;2022-09-09T13:21:37;19.80;99.90
65036;DHT22;51603;49.300;8.880;2022-09-09T13:24:23;19.70;99.90
65036;DHT22;51603;49.300;8.880;2022-09-09T13:29:30;19.30;99.90
65036;DHT22;51603;49.300;8.880;2022-09-09T13:32:15;19.20;99.10
65036;DHT22;51603;49.300;8.880;2022-09-09T13:37:40;19.00;99.90
65036;DHT22;51603;49.300;8.880;2022-09-09T13:40:17;18.80;99.90
65036;DHT22;51603;49.300;8.880;2022-09-09T13:42:44;18.60;99.90
65036;DHT22;51603;49.300;8.880;2022-09-09T13:45:21;18.40;99.90
65036;DHT22;51603;49.300;8.880;2022-09-09T13:47:47;18.20;99.90
65036;DHT22;51603;49.300;8.880;2022-09-09T13:50:22;17.80;99.90
65036;DHT22;51603;49.300;8.880;2022-09-09T13:52:49;17.70;99.90
65036;DHT22;51603;49.300;8.880;2022-09-09T13:55:17;17.40;99.90
65036;DHT22;51603;49.300;8.880;2022-09-09T13:57:59;17.20;99.90
65036;DHT22;51603;49.300;8.880;2022-09-09T14:00:30;17.00;99.90
65036;DHT22;51603;49.300;8.880;2022-09-09T14:02:56;17.00;99.90
65036;DHT22;51603;49.300;8.880;2022-09-09T14:05:22;17.00;99.90
65036;DHT22;51603;49.300;8.880;2022-09-09T14:07:49;16.90;99.90
65036;DHT22;51603;49.300;8.880;2022-09-09T14:10:15;17.00;99.90
65036;DHT22;51603;49.300;8.880;2022-09-09T14:12:40;17.10;99.90
65036;DHT22;51603;49.300;8.880;2022-09-09T14:15:09;17.10;99.90
65036;DHT22;51603;49.300;8.880;2022-09-09T14:17:35;17.30;99.90
65036;DHT22;51603;49.300;8.880;2022-09-09T14:20:02;17.40;99.90
65036;DHT22;51603;49.300;8.880;2022-09-09T14:22:28;17.50;99.90
65036;DHT22;51603;49.300;8.880;2022-09-09T14:24:54;17.60;99.90
65036;DHT22;51603;49.300;8.880;2022-09-09T14:27:19;17.80;99.90
65036;DHT22;51603;49.300;8.880;2022-09-09T14:29:45;18.10;99.90
65036;DHT22;51603;49.300;8.880;2022-09-09T14:32:11;18.50;99.90
65036;DHT22;51603;49.300;8.880;2022-09-09T14:34:37;18.70;99.90
65036;DHT22;51603;49.300;8.880;2022-09-09T14:37:03;18.90;99.90
65036;DHT22;51603;49.300;8.880;2022-09-09T14:39:29;19.00;99.90
65036;DHT22;51603;49.300;8.880;2022-09-09T14:41:55;19.30;99.90
65036;DHT22;51603;49.300;8.880;2022-09-09T14:44:20;19.40;99.90
65036;DHT22;51603;49.300;8.880;2022-09-09T14:46:46;19.70;99.90
65036;DHT22;51603;49.300;8.880;2022-09-09T14:49:12;20.10;99.90
65036;DHT22;51603;49.300;8.880;2022-09-09T14:51:38;20.60;99.90
65036;DHT22;51603;49.300;8.880;2022-09-09T14:54:04;20.90;99.90
65036;DHT22;51603;49.300;8.880;2022-09-09T14:56:32;21.20;99.90
65036;DHT22;51603;49.300;8.880;2022-09-09T14:59:00;21.30;99.90
65036;DHT22;51603;49.300;8.880;2022-09-09T15:01:29;21.20;99.90
65036;DHT22;51603;49.300;8.880;2022-09-09T15:04:03;21.50;99.90
65036;DHT22;51603;49.300;8.880;2022-09-09T15:06:31;21.40;99.90
65036;DHT22;51603;49.300;8.880;2022-09-09T15:08:58;21.20;99.90
65036;DHT22;51603;49.300;8.880;2022-09-09T15:11:27;20.90;99.90
65036;DHT22;51603;49.300;8.880;2022-09-09T15:13:53;20.60;99.90
65036;DHT22;51603;49.300;8.880;2022-09-09T15:16:21;20.20;99.90
65036;DHT22;51603;49.300;8.880;2022-09-09T15:18:50;19.90;99.90
65036;DHT22;51603;49.300;8.880;2022-09-09T15:21:19;19.70;99.90
65036;DHT22;51603;49.300;8.880;2022-09-09T15:23:45;19.60;99.90
65036;DHT22;51603;49.300;8.880;2022-09-09T15:26:12;19.60;99.90
65036;DHT22;51603;49.300;8.880;2022-09-09T15:28:43;19.60;99.90
65036;DHT22;51603;49.300;8.880;2022-09-09T15:31:29;19.50;99.90
65036;DHT22;51603;49.300;8.880;2022-09-09T15:34:00;19.50;99.90
65036;DHT22;51603;49.300;8.880;2022-09-09T15:36:28;19.50;99.90
65036;DHT22;51603;49.300;8.880;2022-09-09T15:38:55;19.50;99.90
65036;DHT22;51603;49.300;8.880;2022-09-09T15:41:21;19.40;99.90
65036;DHT22;51603;49.300;8.880;2022-09-09T15:43:49;19.30;99.90
65036;DHT22;51603;49.300;8.880;2022-09-09T15:46:35;19.10;99.90
65036;DHT22;51603;49.300;8.880;2022-09-09T15:49:16;19.00;99.90
65036;DHT22;51603;49.300;8.880;2022-09-09T15:51:56;18.90;99.90
65036;DHT22;51603;49.300;8.880;2022-09-09T15:54:31;18.80;99.90
65036;DHT22;51603;49.300;8.880;2022-09-09T15:56:59;18.80;99.90
65036;DHT22;51603;49.300;8.880;2022-09-09T15:59:27;18.70;99.90
65036;DHT22;51603;49.300;8.880;2022-09-09T16:01:56;18.60;99.90
65036;DHT22;51603;49.300;8.880;2022-09-09T16:04:23;18.50;99.90
65036;DHT22;51603;49.300;8.880;2022-09-09T16:06:53;18.50;99.90
65036;DHT22;51603;49.300;8.880;2022-09-09T16:09:20;18.50;99.90
65036;DHT22;51603;49.300;8.880;2022-09-09T16:11:46;18.40;99.90
65036;DHT22;51603;49.300;8.880;2022-09-09T16:14:13;18.40;99.90
65036;DHT22;51603;49.300;8.880;2022-09-09T16:16:38;18.50;99.90
65036;DHT22;51603;49.300;8.880;2022-09-09T16:19:06;18.70;99.90
65036;DHT22;51603;49.300;8.880;2022-09-09T16:21:35;19.00;99.90
65036;DHT22;51603;49.300;8.880;2022-09-09T16:24:03;19.10;99.90
65036;DHT22;51603;49.300;8.880;2022-09-09T16:26:31;19.10;99.90
65036;DHT22;51603;49.300;8.880;2022-09-09T16:28:57;19.30;99.90
65036;DHT22;51603;49.300;8.880;2022-09-09T16:31:24;19.40;99.90
65036;DHT22;51603;49.300;8.880;2022-09-09T16:33:51;19.60;99.90
65036;DHT22;51603;49.300;8.880;2022-09-09T16:36:22;19.80;99.90
65036;DHT22;51603;49.300;8.880;2022-09-09T16:38:55;19.60;99.90
65036;DHT22;51603;49.300;8.880;2022-09-09T16:41:22;19.80;99.90
65036;DHT22;51603;49.300;8.880;2022-09-09T16:43:53;19.90;99.90
65036;DHT22;51603;49.300;8.880;2022-09-09T16:46:19;19.90;99.90
65036;DHT22;51603;49.300;8.880;2022-09-09T16:48:46;19.90;99.90
65036;DHT22;51603;49.300;8.880;2022-09-09T16:51:27;19.70;99.90
65036;DHT22;51603;49.300;8.880;2022-09-09T16:53:54;19.40;99.90
65036;DHT22;51603;49.300;8.880;2022-09-09T16:56:22;19.20;99.90
65036;DHT22;51603;49.300;8.880;2022-09-09T16:58:52;19.00;99.90
65036;DHT22;51603;49.300;8.880;2022-09-09T17:01:18;18.80;99.90
65036;DHT22;51603;49.300;8.880;2022-09-09T17:03:43;18.70;99.90
65036;DHT22;51603;49.300;8.880;2022-09-09T17:06:10;18.60;99.90
65036;DHT22;51603;49.300;8.880;2022-09-09T17:08:37;18.50;99.90
65036;DHT22;51603;49.300;8.880;2022-09-09T17:11:10;18.40;99.90
65036;DHT22;51603;49.300;8.880;2022-09-09T17:13:39;18.30;99.90
65036;DHT22;51603;49.300;8.880;2022-09-09T17:16:04;18.20;99.90
65036;DHT22;51603;49.300;8.880;2022-09-09T17:18:30;18.20;99.90
65036;DHT22;51603;49.300;8.880;2022-09-09T17:21:03;18.10;99.90
65036;DHT22;51603;49.300;8.880;2022-09-09T17:23:29;18.10;99.90
65036;DHT22;51603;49.300;8.880;2022-09-09T17:25:58;18.00;99.90
65036;DHT22;51603;49.300;8.880;2022-09-09T17:28:23;17.90;99.90
65036;DHT22;51603;49.300;8.880;2022-09-09T17:30:52;17.90;99.90
65036;DHT22;51603;49.300;8.880;2022-09-09T17:33:18;17.80;99.90
65036;DHT22;51603;49.300;8.880;2022-09-09T17:35:46;17.70;99.90
65036;DHT22;51603;49.300;8.880;2022-09-09T17:38:11;17.60;99.90